This is the latest recevied weather packets stored in our database for station/object OK1FET-5. If no packets are shown the sender has not sent any weather packets the latest 10 day(s).
| Time | Temp. | Humidity | Pressure | Rain* | Wind** | Luminosity | Snow |
|---|---|---|---|---|---|---|---|
| 1777960285 | 15.56° C | 57% | 1009.7 hPa | - | - | - | - |
| 1777959696 | 15° C | 59% | 1009.6 hPa | - | - | - | - |
| 1777959402 | 15° C | 58% | 1009.5 hPa | - | - | - | - |
| 1777959107 | 15° C | 62% | 1009.4 hPa | - | - | - | - |
| 1777958813 | 15.56° C | 59% | 1009.5 hPa | - | - | - | - |
| 1777958518 | 15.56° C | 58% | 1009.5 hPa | - | - | - | - |
| 1777958224 | 15.56° C | 55% | 1009.6 hPa | - | - | - | - |
| 1777958224 | 15.56° C | 55% | 1009.6 hPa | - | - | - | - |
| 1777957930 | 16.11° C | 55% | 1009.6 hPa | - | - | - | - |
| 1777957635 | 16.11° C | 53% | 1009.6 hPa | - | - | - | - |
| 1777957635 | 16.11° C | 53% | 1009.6 hPa | - | - | - | - |
| 1777957341 | 16.11° C | 52% | 1009.7 hPa | - | - | - | - |
| 1777957046 | 16.11° C | 53% | 1009.6 hPa | - | - | - | - |
| 1777957046 | 16.11° C | 53% | 1009.6 hPa | - | - | - | - |
| 1777956457 | 15° C | 56% | 1009.6 hPa | - | - | - | - |
| 1777956164 | 14.44° C | 57% | 1009.6 hPa | - | - | - | - |
| 1777955868 | 14.44° C | 57% | 1009.6 hPa | - | - | - | - |
| 1777955574 | 14.44° C | 57% | 1009.6 hPa | - | - | - | - |
| 1777955280 | 14.44° C | 57% | 1009.5 hPa | - | - | - | - |
| 1777954985 | 14.44° C | 56% | 1009.5 hPa | - | - | - | - |
| 1777954691 | 14.44° C | 55% | 1009.5 hPa | - | - | - | - |
| 1777954102 | 13.89° C | 55% | 1009.6 hPa | - | - | - | - |
| 1777953808 | 13.89° C | 55% | 1009.6 hPa | - | - | - | - |
| 1777953220 | 13.89° C | 55% | 1009.6 hPa | - | - | - | - |
| 1777952925 | 13.89° C | 55% | 1009.6 hPa | - | - | - | - |
* Rain since midnight (hover to see other rain measurements)
** Current wind speed in m/s (hover to see current wind gust speed)